Details for Virgin Atlantic at EGLL




Go Back


Latest METAR
Local Time

EGLL 232350Z AUTO 10011KT 9999 NCD 01/M04 Q1020

24/02/2018, 00:19:49

Description
Results
Virgin Atlantic Logo
Number of Pilots based at EGLL
1 Pilots Based here
Number of Virgin Atlantic Flights Departed from EGLL
2 Flights Departed
Number of Virgin Atlantic Flights Arrived at EGLL
1 Flights Arrived
Number of Virgin Atlantic Schedules Departing from EGLL
22 Schedules
Number of Virgin Atlantic Schedules Arriving at EGLL
22 Schedules
Number of Virgin Atlantic Schedules Departing from EGLL availible today
21 Schedules Today
Number of Virgin Atlantic Schedules Arriving at EGLL availible today
21 Schedules Today
Average Landing Rate at EGLL
-193 fpm
Virgin Atlantic Average Landing Rate at EGLL
-177 fpm
Total Fuel Purchased at EGLL by Virgin Atlantic
168,623.10 kgs / 371,746.49 lbs

Pilots Based at EGLL


Pilot ID
Pilot Name
Pilot Rank
No. of Flights
No. of Flying Hours
Chris Nicholson
27
83.18
Content